createdAt,value
2018-12-02T00:01:56.203Z,2.23
2018-12-02T00:04:26.955Z,4.00
2018-12-02T00:06:56.214Z,2.60
2018-12-02T00:09:25.484Z,1.97
2018-12-02T00:11:54.683Z,2.40
2018-12-02T00:14:23.919Z,2.00
2018-12-02T00:16:53.995Z,2.23
2018-12-02T00:19:23.235Z,2.50
2018-12-02T00:21:52.828Z,2.00
2018-12-02T00:24:22.045Z,2.60
2018-12-02T00:26:51.227Z,3.07
2018-12-02T00:29:22.332Z,3.20
2018-12-02T00:31:51.576Z,1.53
2018-12-02T00:34:20.819Z,1.90
2018-12-02T00:36:50.074Z,1.60
2018-12-02T00:39:19.245Z,2.17
2018-12-02T00:41:49.371Z,9.60
2018-12-02T00:44:18.618Z,2.17
2018-12-02T00:46:47.798Z,1.50
2018-12-02T00:49:17.047Z,2.83
2018-12-02T00:51:47.180Z,1.70
2018-12-02T00:54:17.354Z,2.17
2018-12-02T00:56:46.964Z,2.27
2018-12-02T00:59:16.327Z,1.60
2018-12-02T01:01:45.528Z,1.50
2018-12-02T01:04:14.739Z,4.67
2018-12-02T01:06:44.935Z,1.53
2018-12-02T01:09:14.143Z,0.83
2018-12-02T01:11:43.430Z,1.23
2018-12-02T01:14:13.801Z,1.97
2018-12-02T01:16:42.999Z,1.63
2018-12-02T01:19:13.611Z,1.30
2018-12-02T01:21:42.798Z,1.20
2018-12-02T01:24:11.975Z,1.77
2018-12-02T01:26:41.252Z,1.53
2018-12-02T01:29:10.495Z,2.13
2018-12-02T01:31:40.602Z,1.43
2018-12-02T01:34:09.794Z,2.67
2018-12-02T01:36:38.990Z,1.77
2018-12-02T01:39:09.012Z,1.47
2018-12-02T01:41:38.258Z,2.33
2018-12-02T01:44:09.806Z,2.60
2018-12-02T01:46:38.972Z,2.07
2018-12-02T01:49:08.202Z,1.57
2018-12-02T01:51:38.779Z,2.43
2018-12-02T01:54:08.084Z,1.20
2018-12-02T01:56:37.838Z,1.00
2018-12-02T01:59:07.483Z,1.43
2018-12-02T02:01:36.660Z,1.53
2018-12-02T02:04:06.247Z,1.70
2018-12-02T02:06:36.763Z,0.87
2018-12-02T02:09:09.180Z,1.10
2018-12-02T02:11:39.419Z,1.30
2018-12-02T02:14:08.621Z,3.07
2018-12-02T02:16:38.271Z,1.23
2018-12-02T02:19:07.515Z,1.50
2018-12-02T02:21:37.222Z,1.00
2018-12-02T02:24:06.735Z,1.50
2018-12-02T02:26:36.666Z,1.00
2018-12-02T02:29:07.252Z,1.13
2018-12-02T02:31:36.444Z,2.20
2018-12-02T02:34:06.658Z,0.80
2018-12-02T02:36:35.836Z,1.27
2018-12-02T02:39:07.705Z,1.33
2018-12-02T02:41:37.100Z,1.13
2018-12-02T02:44:06.307Z,1.10
2018-12-02T02:46:36.012Z,3.93
2018-12-02T02:49:05.359Z,0.93
2018-12-02T02:51:35.464Z,1.57
2018-12-02T02:54:04.930Z,1.60
2018-12-02T02:56:34.076Z,1.93
2018-12-02T02:59:03.826Z,2.00
2018-12-02T03:01:33.222Z,1.33
2018-12-02T03:04:03.119Z,1.23
2018-12-02T03:06:32.324Z,0.90
2018-12-02T03:09:02.631Z,3.07
2018-12-02T03:11:32.263Z,2.93
2018-12-02T03:14:01.473Z,1.93
2018-12-02T03:16:32.411Z,1.90
2018-12-02T03:19:01.574Z,0.80
2018-12-02T03:21:30.809Z,1.00
2018-12-02T03:24:00.443Z,2.00
2018-12-02T03:26:29.595Z,2.07
2018-12-02T03:28:59.334Z,1.40
2018-12-02T03:31:28.527Z,1.83
2018-12-02T03:33:57.767Z,1.07
2018-12-02T03:36:27.663Z,0.87
2018-12-02T03:38:56.864Z,5.23
2018-12-02T03:41:27.720Z,1.50
2018-12-02T03:43:56.876Z,0.70
2018-12-02T03:46:27.349Z,1.53
2018-12-02T03:48:57.004Z,1.43
2018-12-02T03:51:27.118Z,1.77
2018-12-02T03:53:57.138Z,4.47
2018-12-02T03:56:26.307Z,2.60
2018-12-02T03:58:55.495Z,3.33
2018-12-02T04:01:25.001Z,1.90
2018-12-02T04:03:56.415Z,1.57
2018-12-02T04:06:25.591Z,1.00
2018-12-02T04:08:54.815Z,5.77
2018-12-02T04:11:23.979Z,4.73
2018-12-02T04:13:53.114Z,4.77
2018-12-02T04:16:23.108Z,3.37
2018-12-02T04:18:52.294Z,1.27
2018-12-02T04:21:21.453Z,3.63
2018-12-02T04:23:51.263Z,1.00
2018-12-02T04:26:20.451Z,1.93
2018-12-02T04:28:51.497Z,1.60
2018-12-02T04:31:20.772Z,3.70
2018-12-02T04:33:49.905Z,2.57
2018-12-02T04:36:19.144Z,2.67
2018-12-02T04:38:48.344Z,2.80
2018-12-02T04:41:18.428Z,1.37
2018-12-02T04:43:47.670Z,1.23
2018-12-02T04:46:18.170Z,3.13
2018-12-02T04:48:47.354Z,2.33
2018-12-02T04:51:16.530Z,3.77
2018-12-02T04:53:47.478Z,2.60
2018-12-02T04:56:16.712Z,2.07
2018-12-02T04:58:45.926Z,4.60
2018-12-02T05:01:15.256Z,4.50
2018-12-02T05:03:44.411Z,1.90
2018-12-02T05:06:14.557Z,1.67
2018-12-02T05:08:43.799Z,1.30
2018-12-02T05:11:13.003Z,1.40
2018-12-02T05:13:42.159Z,1.33
2018-12-02T05:16:11.345Z,2.90
2018-12-02T05:18:41.923Z,2.50
2018-12-02T05:21:11.116Z,2.00
2018-12-02T05:23:41.620Z,2.57
2018-12-02T05:26:10.775Z,1.93
2018-12-02T05:28:40.464Z,3.07
2018-12-02T05:31:10.152Z,0.73
2018-12-02T05:33:39.338Z,1.57
2018-12-02T05:36:08.479Z,2.97
2018-12-02T05:38:37.775Z,1.33
2018-12-02T05:41:08.515Z,2.93
2018-12-02T05:43:37.721Z,1.30
2018-12-02T05:46:08.588Z,1.03
2018-12-02T05:48:37.749Z,2.83
2018-12-02T05:51:07.559Z,2.27
2018-12-02T05:53:37.266Z,3.17
2018-12-02T05:56:06.567Z,1.80
2018-12-02T05:58:35.737Z,2.67
2018-12-02T06:01:05.235Z,2.30
2018-12-02T06:03:35.787Z,1.90
2018-12-02T06:06:05.017Z,1.00
2018-12-02T06:08:34.712Z,2.07
2018-12-02T06:11:03.910Z,4.13
2018-12-02T06:13:33.098Z,1.40
2018-12-02T06:16:03.387Z,2.67
2018-12-02T06:18:32.570Z,2.67
2018-12-02T06:21:01.872Z,2.33
2018-12-02T06:23:32.096Z,3.23
2018-12-02T06:26:01.294Z,1.27
2018-12-02T06:28:32.072Z,1.30
2018-12-02T06:31:01.374Z,2.00
2018-12-02T06:33:30.590Z,1.50
2018-12-02T06:35:59.800Z,1.97
2018-12-02T06:38:29.055Z,2.63
2018-12-02T06:40:59.215Z,1.00
2018-12-02T06:43:28.482Z,1.90
2018-12-02T06:45:58.675Z,3.13
2018-12-02T06:48:27.867Z,0.70
2018-12-02T06:50:57.143Z,0.70
2018-12-02T06:53:28.371Z,1.60
2018-12-02T06:56:16.636Z,1.90
2018-12-02T06:58:59.800Z,1.57
2018-12-02T07:03:44.125Z,1.57
2018-12-02T07:06:13.413Z,2.40
2018-12-02T07:08:43.493Z,2.50
2018-12-02T07:11:12.672Z,0.90
2018-12-02T07:13:42.418Z,1.10
2018-12-02T07:16:12.041Z,1.10
2018-12-02T07:18:42.005Z,2.60
2018-12-02T07:21:17.346Z,1.63
2018-12-02T07:23:51.163Z,1.13
2018-12-02T07:26:21.000Z,1.33
2018-12-02T07:28:50.197Z,0.70
2018-12-02T07:31:19.571Z,4.37
2018-12-02T07:34:04.319Z,1.83
2018-12-02T07:36:54.215Z,2.07
2018-12-02T07:39:54.779Z,0.93
2018-12-02T07:42:23.940Z,2.27
2018-12-02T07:44:54.835Z,0.90
2018-12-02T07:47:24.546Z,0.97
2018-12-02T07:49:53.711Z,1.23
2018-12-02T07:52:22.871Z,3.43
2018-12-02T07:54:52.688Z,2.60
2018-12-02T07:57:22.414Z,3.70
2018-12-02T07:59:52.044Z,3.40
2018-12-02T08:02:21.368Z,2.10
2018-12-02T08:04:50.569Z,1.47
2018-12-02T08:07:19.810Z,1.20
2018-12-02T08:09:50.239Z,1.53
2018-12-02T08:12:19.878Z,2.00
2018-12-02T08:14:49.059Z,2.13
2018-12-02T08:17:18.833Z,3.80
2018-12-02T08:19:48.001Z,1.37
2018-12-02T08:22:17.716Z,1.10
2018-12-02T08:24:47.332Z,1.73
2018-12-02T08:27:16.485Z,1.63
2018-12-02T08:29:45.679Z,2.70
2018-12-02T08:32:14.899Z,1.00
2018-12-02T08:34:45.812Z,2.03
2018-12-02T08:37:15.484Z,2.63
2018-12-02T08:39:44.661Z,1.10
2018-12-02T08:42:13.844Z,2.03
2018-12-02T08:44:43.243Z,3.67
2018-12-02T08:47:12.941Z,3.20
2018-12-02T08:49:42.653Z,2.70
2018-12-02T08:52:11.927Z,1.50
2018-12-02T08:54:41.126Z,1.53
2018-12-02T08:57:10.319Z,3.77
2018-12-02T08:59:40.593Z,7.27
2018-12-02T09:02:10.167Z,1.90
2018-12-02T09:04:39.395Z,1.27
2018-12-02T09:07:08.599Z,2.00
2018-12-02T09:09:37.757Z,2.57
2018-12-02T09:12:07.889Z,1.50
2018-12-02T09:14:37.817Z,2.70
2018-12-02T09:17:07.168Z,1.30
2018-12-02T09:19:36.348Z,1.97
2018-12-02T09:22:08.924Z,1.33
2018-12-02T09:24:39.843Z,1.13
2018-12-02T09:27:09.015Z,2.67
2018-12-02T09:29:38.302Z,2.47
2018-12-02T09:32:07.548Z,3.20
2018-12-02T09:34:37.683Z,1.30
2018-12-02T09:37:07.173Z,3.50
2018-12-02T09:39:36.348Z,1.83
2018-12-02T09:42:05.853Z,1.67
2018-12-02T09:44:35.647Z,1.47
2018-12-02T09:47:07.043Z,0.80
2018-12-02T09:49:36.411Z,2.73
2018-12-02T09:52:06.172Z,1.27
2018-12-02T09:54:35.395Z,1.07
2018-12-02T09:57:05.399Z,1.53
2018-12-02T09:59:35.574Z,1.33
2018-12-02T10:02:05.171Z,3.70
2018-12-02T10:04:34.461Z,1.27
2018-12-02T10:07:03.651Z,1.70
2018-12-02T10:09:33.192Z,1.27
2018-12-02T10:12:02.905Z,1.50
2018-12-02T10:14:32.235Z,1.20
2018-12-02T10:17:01.433Z,1.03
2018-12-02T10:19:31.935Z,1.77
2018-12-02T10:22:01.543Z,2.30
2018-12-02T10:24:31.100Z,2.07
2018-12-02T10:27:00.357Z,2.03
2018-12-02T10:29:29.485Z,2.23
2018-12-02T10:31:59.943Z,1.83
2018-12-02T10:34:30.494Z,2.83
2018-12-02T10:37:00.158Z,2.67
2018-12-02T10:39:29.408Z,3.97
2018-12-02T10:41:58.897Z,2.80
2018-12-02T10:44:28.068Z,2.13
2018-12-02T10:46:58.518Z,3.80
2018-12-02T10:49:27.437Z,3.13
2018-12-02T10:51:56.677Z,2.97
2018-12-02T10:54:25.850Z,5.53
2018-12-02T10:56:56.715Z,6.17
2018-12-02T10:59:27.379Z,2.93
2018-12-02T11:02:04.175Z,2.50
2018-12-02T11:04:33.448Z,3.90
2018-12-02T11:07:02.666Z,2.47
2018-12-02T11:09:32.371Z,2.90
2018-12-02T11:12:02.085Z,2.93
2018-12-02T11:14:31.270Z,2.50
2018-12-02T11:17:01.619Z,2.60
2018-12-02T11:19:32.181Z,2.97
2018-12-02T11:22:01.856Z,2.93
2018-12-02T11:24:31.117Z,6.33
2018-12-02T11:27:00.319Z,2.60
2018-12-02T11:29:29.525Z,2.13
2018-12-02T11:31:59.740Z,3.77
2018-12-02T11:34:28.905Z,4.23
2018-12-02T11:36:58.097Z,2.80
2018-12-02T11:39:27.451Z,2.63
2018-12-02T11:41:56.744Z,2.40
2018-12-02T11:44:27.990Z,3.43
2018-12-02T11:46:57.438Z,2.47
2018-12-02T11:49:26.595Z,3.13
2018-12-02T11:51:55.809Z,2.33
2018-12-02T11:54:25.008Z,1.93
2018-12-02T11:56:55.150Z,1.77
2018-12-02T11:59:24.445Z,2.23
2018-12-02T12:01:53.675Z,1.70
2018-12-02T12:04:22.891Z,1.60
2018-12-02T12:06:52.088Z,3.40
2018-12-02T12:09:23.414Z,1.80
2018-12-02T12:11:52.611Z,1.87
2018-12-02T12:14:22.002Z,3.70
2018-12-02T12:16:51.209Z,1.63
2018-12-02T12:19:20.527Z,2.03
2018-12-02T12:21:50.753Z,1.43
2018-12-02T12:24:19.936Z,3.00
2018-12-02T12:26:49.115Z,3.27
2018-12-02T12:29:18.353Z,4.07
2018-12-02T12:31:47.534Z,2.57
2018-12-02T12:34:18.579Z,3.47
2018-12-02T12:36:47.796Z,7.10
2018-12-02T12:39:16.968Z,7.47
2018-12-02T12:41:46.308Z,3.50
2018-12-02T12:44:15.581Z,17.03
2018-12-02T12:46:45.736Z,6.13
2018-12-02T12:49:14.916Z,3.07
2018-12-02T12:51:45.057Z,5.43
2018-12-02T12:54:14.244Z,6.37
2018-12-02T12:56:43.436Z,8.20
2018-12-02T12:59:14.012Z,6.13
2018-12-02T13:01:43.207Z,11.50
2018-12-02T13:04:12.514Z,4.40
2018-12-02T13:06:41.860Z,4.87
2018-12-02T13:09:11.023Z,3.90
2018-12-02T13:11:41.959Z,10.23
2018-12-02T13:14:12.663Z,14.53
2018-12-02T13:16:41.861Z,5.57
2018-12-02T13:19:11.045Z,9.93
2018-12-02T13:21:41.584Z,9.10
2018-12-02T13:24:11.638Z,4.40
2018-12-02T13:26:40.886Z,3.47
2018-12-02T13:29:10.401Z,4.37
2018-12-02T13:31:39.589Z,7.00
2018-12-02T13:34:08.824Z,10.30
2018-12-02T13:36:39.050Z,5.27
2018-12-02T13:39:10.606Z,10.17
2018-12-02T13:41:39.829Z,3.40
2018-12-02T13:44:09.188Z,3.57
2018-12-02T13:46:38.871Z,4.10
2018-12-02T13:49:09.399Z,4.53
2018-12-02T13:51:38.789Z,3.70
2018-12-02T13:54:13.258Z,4.27
2018-12-02T13:56:43.087Z,6.03
2018-12-02T13:59:12.267Z,3.97
2018-12-02T14:01:41.532Z,3.33
2018-12-02T14:04:11.672Z,2.27
2018-12-02T14:06:40.965Z,3.20
2018-12-02T14:09:11.604Z,10.40
2018-12-02T14:11:40.874Z,5.87
2018-12-02T14:14:10.931Z,9.30
2018-12-02T14:17:00.980Z,6.60
2018-12-02T14:19:34.309Z,4.20
2018-12-02T14:22:00.317Z,2.00
2018-12-02T14:24:30.890Z,7.20
2018-12-02T14:27:00.142Z,4.10
2018-12-02T14:29:36.471Z,7.93
2018-12-02T14:32:10.031Z,4.50
2018-12-02T14:34:39.399Z,5.03
2018-12-02T14:37:08.607Z,5.70
2018-12-02T14:39:38.829Z,6.17
2018-12-02T14:42:08.173Z,8.40
2018-12-02T14:44:37.590Z,5.13
2018-12-02T14:47:06.978Z,5.93
2018-12-02T14:49:36.419Z,5.60
2018-12-02T14:52:07.852Z,5.40
2018-12-02T14:54:37.179Z,8.87
2018-12-02T14:57:06.416Z,8.50
2018-12-02T14:59:35.600Z,7.87
2018-12-02T15:02:04.836Z,5.10
2018-12-02T15:04:34.915Z,5.03
2018-12-02T15:07:04.160Z,5.13
2018-12-02T15:09:33.443Z,2.90
2018-12-02T15:12:02.656Z,5.83
2018-12-02T15:14:31.833Z,5.80
2018-12-02T15:17:04.162Z,5.57
2018-12-02T15:19:33.439Z,6.53
2018-12-02T15:22:02.736Z,5.87
2018-12-02T15:24:32.083Z,6.23
2018-12-02T15:27:01.684Z,6.10
2018-12-02T15:29:31.334Z,4.30
2018-12-02T15:32:00.665Z,5.63
2018-12-02T15:34:29.823Z,6.87
2018-12-02T15:36:59.027Z,4.80
2018-12-02T15:39:29.729Z,5.40
2018-12-02T15:41:58.931Z,9.10
2018-12-02T15:44:28.120Z,7.37
2018-12-02T15:46:57.357Z,10.63
2018-12-02T15:49:26.660Z,12.93
2018-12-02T15:51:57.285Z,19.83
2018-12-02T15:54:26.551Z,20.63
2018-12-02T15:56:55.823Z,17.87
2018-12-02T15:59:25.022Z,14.47
2018-12-02T16:01:54.396Z,10.40
2018-12-02T16:04:25.436Z,12.93
2018-12-02T16:06:54.742Z,11.53
2018-12-02T16:09:24.533Z,11.63
2018-12-02T16:11:54.061Z,13.30
2018-12-02T16:14:23.699Z,9.83
2018-12-02T16:16:53.588Z,11.03
2018-12-02T16:19:22.752Z,10.73
2018-12-02T16:21:51.968Z,12.83
2018-12-02T16:24:22.980Z,11.23
2018-12-02T16:26:53.282Z,8.90
2018-12-02T16:29:22.484Z,6.87
2018-12-02T16:31:51.828Z,7.27
2018-12-02T16:34:21.600Z,10.00
2018-12-02T16:36:50.216Z,10.03
2018-12-02T16:39:20.520Z,8.97
2018-12-02T16:41:49.758Z,8.63
2018-12-02T16:44:18.974Z,7.50
2018-12-02T16:46:49.623Z,9.90
2018-12-02T16:49:18.847Z,6.47
2018-12-02T16:51:50.239Z,7.03
2018-12-02T16:54:19.679Z,9.17
2018-12-02T16:56:49.083Z,7.80
2018-12-02T16:59:34.054Z,7.00
2018-12-02T17:02:06.711Z,10.87
2018-12-02T17:04:36.027Z,13.67
2018-12-02T17:07:05.431Z,14.23
2018-12-02T17:09:34.711Z,13.37
2018-12-02T17:12:05.966Z,12.63
2018-12-02T17:14:38.731Z,14.53
2018-12-02T17:17:05.216Z,14.93
2018-12-02T17:19:34.459Z,13.33
2018-12-02T17:22:03.665Z,15.40
2018-12-02T17:24:33.574Z,10.77
2018-12-02T17:27:03.384Z,9.20
2018-12-02T17:29:32.628Z,8.17
2018-12-02T17:32:10.880Z,11.40
2018-12-02T17:34:41.856Z,8.83
2018-12-02T17:37:12.590Z,9.73
2018-12-02T17:39:45.934Z,6.70
2018-12-02T17:42:15.685Z,7.97
2018-12-02T17:44:45.440Z,8.07
2018-12-02T17:47:15.050Z,7.67
2018-12-02T17:49:44.734Z,11.90
2018-12-02T17:52:14.067Z,7.83
2018-12-02T17:54:43.299Z,9.37
2018-12-02T17:57:13.972Z,6.10
2018-12-02T17:59:43.820Z,10.53
2018-12-02T18:02:13.138Z,6.53
2018-12-02T18:04:42.445Z,7.80
2018-12-02T18:07:11.692Z,6.47
2018-12-02T18:09:41.351Z,6.97
2018-12-02T18:12:11.163Z,6.60
2018-12-02T18:14:40.403Z,6.33
2018-12-02T18:17:09.721Z,6.27
2018-12-02T18:19:39.083Z,11.17
2018-12-02T18:22:10.208Z,7.37
2018-12-02T18:24:41.520Z,7.27
2018-12-02T18:27:10.816Z,9.77
2018-12-02T18:29:40.074Z,15.83
2018-12-02T18:32:09.932Z,8.37
2018-12-02T18:34:39.791Z,6.93
2018-12-02T18:37:11.414Z,9.03
2018-12-02T18:39:40.698Z,9.57
2018-12-02T18:42:10.604Z,5.83
2018-12-02T18:44:41.255Z,10.87
2018-12-02T18:47:12.037Z,8.83
2018-12-02T18:49:41.302Z,7.67
2018-12-02T18:52:10.604Z,12.03
2018-12-02T18:54:40.748Z,6.83
2018-12-02T18:57:09.510Z,7.30
2018-12-02T18:59:38.851Z,4.00
2018-12-02T19:02:08.354Z,8.03
2018-12-02T19:04:37.687Z,10.97
2018-12-02T19:07:08.782Z,4.10
2018-12-02T19:09:38.319Z,4.17
2018-12-02T19:12:07.843Z,4.30
2018-12-02T19:14:37.434Z,5.20
2018-12-02T19:17:06.834Z,8.03
2018-12-02T19:19:36.888Z,4.73
2018-12-02T19:22:07.282Z,4.63
2018-12-02T19:24:36.567Z,3.87
2018-12-02T19:27:07.467Z,5.33
2018-12-02T19:29:37.771Z,3.50
2018-12-02T19:32:07.046Z,4.73
2018-12-02T19:34:36.354Z,3.63
2018-12-02T19:37:08.088Z,4.33
2018-12-02T19:39:37.809Z,5.00
2018-12-02T19:42:08.172Z,7.43
2018-12-02T19:44:37.439Z,5.37
2018-12-02T19:47:07.177Z,17.07
2018-12-02T19:49:36.405Z,10.57
2018-12-02T19:52:07.252Z,15.90
2018-12-02T19:54:36.729Z,17.53
2018-12-02T19:57:06.479Z,24.73
2018-12-02T19:59:36.012Z,12.97
2018-12-02T20:02:06.126Z,23.07
2018-12-02T20:04:36.762Z,24.43
2018-12-02T20:07:06.487Z,15.90
2018-12-02T20:09:35.932Z,16.90
2018-12-02T20:12:05.778Z,24.73
2018-12-02T20:14:36.261Z,14.53
2018-12-02T20:17:05.746Z,22.57
2018-12-02T20:19:40.546Z,13.60
2018-12-02T20:22:09.757Z,13.80
2018-12-02T20:24:41.783Z,11.90
2018-12-02T20:27:12.280Z,11.97
2018-12-02T20:29:41.493Z,10.73
2018-12-02T20:32:12.242Z,11.63
2018-12-02T20:34:42.390Z,14.77
2018-12-02T20:37:11.577Z,10.13
2018-12-02T20:39:43.085Z,8.20
2018-12-02T20:42:12.292Z,9.27
2018-12-02T20:44:41.953Z,34.43
2018-12-02T20:47:11.263Z,28.37
2018-12-02T20:49:40.456Z,37.70
2018-12-02T20:52:10.072Z,26.87
2018-12-02T20:54:39.286Z,8.77
2018-12-02T20:57:10.289Z,9.60
2018-12-02T20:59:39.455Z,7.77
2018-12-02T21:02:08.703Z,6.40
2018-12-02T21:04:37.973Z,4.47
2018-12-02T21:07:07.205Z,6.77
2018-12-02T21:09:37.264Z,8.60
2018-12-02T21:12:06.675Z,6.27
2018-12-02T21:14:35.964Z,5.23
2018-12-02T21:17:06.215Z,6.13
2018-12-02T21:19:35.396Z,5.53
2018-12-02T21:22:06.909Z,5.90
2018-12-02T21:24:36.143Z,6.17
2018-12-02T21:27:05.717Z,6.30
2018-12-02T21:29:35.052Z,8.30
2018-12-02T21:32:04.878Z,7.50
2018-12-02T21:34:34.610Z,8.37
2018-12-02T21:37:03.884Z,5.90
2018-12-02T21:39:33.091Z,11.07
2018-12-02T21:42:02.290Z,9.80
2018-12-02T21:44:33.649Z,8.07
2018-12-02T21:47:02.947Z,7.30
2018-12-02T21:49:32.127Z,8.27
2018-12-02T21:52:01.513Z,8.87
2018-12-02T21:54:30.698Z,6.33
2018-12-02T21:57:00.951Z,6.60
2018-12-02T21:59:30.164Z,9.17
2018-12-02T22:01:59.686Z,5.73
2018-12-02T22:04:28.931Z,11.27
2018-12-02T22:06:58.339Z,11.77
2018-12-02T22:09:30.286Z,9.17
2018-12-02T22:11:59.528Z,8.37
2018-12-02T22:14:28.907Z,13.33
2018-12-02T22:16:58.237Z,36.27
2018-12-02T22:19:27.963Z,9.67
2018-12-02T22:21:57.664Z,15.07
2018-12-02T22:24:26.920Z,11.97
2018-12-02T22:26:56.118Z,21.10
2018-12-02T22:29:25.300Z,40.17
2018-12-02T22:31:55.968Z,39.27
2018-12-02T22:34:25.139Z,33.63
2018-12-02T22:36:54.374Z,12.87
2018-12-02T22:39:23.649Z,15.50
2018-12-02T22:41:52.819Z,43.00
2018-12-02T22:44:23.151Z,8.53
2018-12-02T22:46:52.849Z,9.27
2018-12-02T22:49:22.052Z,18.87
2018-12-02T22:51:51.287Z,22.00
2018-12-02T22:54:20.503Z,9.97
2018-12-02T22:56:51.190Z,14.50
2018-12-02T22:59:20.398Z,7.83
2018-12-02T23:01:56.627Z,6.03
2018-12-02T23:04:25.924Z,6.83
2018-12-02T23:06:56.014Z,4.67
2018-12-02T23:09:25.332Z,5.37
2018-12-02T23:11:54.606Z,6.47
2018-12-02T23:14:23.852Z,8.67
2018-12-02T23:17:06.734Z,5.97
2018-12-02T23:19:35.995Z,6.30
2018-12-02T23:22:05.193Z,7.83
2018-12-02T23:24:34.393Z,6.03
2018-12-02T23:27:04.292Z,6.27
2018-12-02T23:29:35.822Z,6.33
2018-12-02T23:32:05.973Z,7.17
2018-12-02T23:34:35.178Z,4.50
2018-12-02T23:37:04.563Z,5.40
2018-12-02T23:39:33.738Z,5.73
2018-12-02T23:42:03.534Z,4.60
2018-12-02T23:44:32.797Z,7.07
2018-12-02T23:47:01.937Z,5.47
2018-12-02T23:49:32.833Z,3.90
2018-12-02T23:52:02.132Z,3.23
2018-12-02T23:54:31.709Z,2.00
2018-12-02T23:57:00.895Z,2.67
2018-12-02T23:59:30.087Z,1.63
